sensor_id;sensor_type;location;lat;lon;timestamp;P1;durP1;ratioP1;P2;durP2;ratioP2
14890;SDS011;7537;48.014;11.590;2023-07-24T00:00:20;11.90;;;6.26;;
14890;SDS011;7537;48.014;11.590;2023-07-24T00:05:45;8.11;;;5.82;;
14890;SDS011;7537;48.014;11.590;2023-07-24T00:11:26;8.01;;;6.16;;
14890;SDS011;7537;48.014;11.590;2023-07-24T00:16:54;7.11;;;5.86;;
14890;SDS011;7537;48.014;11.590;2023-07-24T00:22:24;8.16;;;6.30;;
14890;SDS011;7537;48.014;11.590;2023-07-24T00:27:54;8.99;;;6.16;;
14890;SDS011;7537;48.014;11.590;2023-07-24T00:33:22;6.69;;;5.69;;
14890;SDS011;7537;48.014;11.590;2023-07-24T00:38:52;6.80;;;5.21;;
14890;SDS011;7537;48.014;11.590;2023-07-24T00:44:20;8.29;;;6.22;;
14890;SDS011;7537;48.014;11.590;2023-07-24T00:49:48;9.15;;;5.82;;
14890;SDS011;7537;48.014;11.590;2023-07-24T00:55:21;6.66;;;5.62;;
14890;SDS011;7537;48.014;11.590;2023-07-24T01:00:47;8.99;;;6.34;;
14890;SDS011;7537;48.014;11.590;2023-07-24T01:06:14;8.13;;;5.69;;
14890;SDS011;7537;48.014;11.590;2023-07-24T01:11:47;6.99;;;5.52;;
14890;SDS011;7537;48.014;11.590;2023-07-24T01:17:19;8.47;;;5.74;;
14890;SDS011;7537;48.014;11.590;2023-07-24T01:22:58;6.29;;;5.04;;
14890;SDS011;7537;48.014;11.590;2023-07-24T01:28:26;6.39;;;5.13;;
14890;SDS011;7537;48.014;11.590;2023-07-24T01:34:00;7.64;;;5.72;;
14890;SDS011;7537;48.014;11.590;2023-07-24T01:39:30;8.24;;;5.78;;
14890;SDS011;7537;48.014;11.590;2023-07-24T01:44:56;7.31;;;6.42;;
14890;SDS011;7537;48.014;11.590;2023-07-24T01:50:35;6.64;;;5.59;;
14890;SDS011;7537;48.014;11.590;2023-07-24T01:56:04;6.94;;;5.50;;
14890;SDS011;7537;48.014;11.590;2023-07-24T02:01:33;5.69;;;5.42;;
14890;SDS011;7537;48.014;11.590;2023-07-24T02:07:00;8.24;;;6.24;;
14890;SDS011;7537;48.014;11.590;2023-07-24T02:12:31;6.29;;;5.29;;
14890;SDS011;7537;48.014;11.590;2023-07-24T02:18:05;6.39;;;5.27;;
14890;SDS011;7537;48.014;11.590;2023-07-24T02:23:50;5.57;;;5.06;;
14890;SDS011;7537;48.014;11.590;2023-07-24T02:29:24;6.69;;;5.56;;
14890;SDS011;7537;48.014;11.590;2023-07-24T02:34:54;6.34;;;5.66;;
14890;SDS011;7537;48.014;11.590;2023-07-24T02:40:20;7.06;;;5.33;;
14890;SDS011;7537;48.014;11.590;2023-07-24T02:45:53;7.86;;;6.19;;
14890;SDS011;7537;48.014;11.590;2023-07-24T02:51:20;8.71;;;6.01;;
14890;SDS011;7537;48.014;11.590;2023-07-24T02:56:48;8.56;;;6.03;;
14890;SDS011;7537;48.014;11.590;2023-07-24T03:02:34;9.62;;;6.44;;
14890;SDS011;7537;48.014;11.590;2023-07-24T03:08:01;7.78;;;6.43;;
14890;SDS011;7537;48.014;11.590;2023-07-24T03:13:32;8.83;;;6.88;;
14890;SDS011;7537;48.014;11.590;2023-07-24T03:19:02;8.24;;;6.29;;
14890;SDS011;7537;48.014;11.590;2023-07-24T03:24:48;7.75;;;6.14;;
14890;SDS011;7537;48.014;11.590;2023-07-24T03:30:16;9.51;;;7.49;;
14890;SDS011;7537;48.014;11.590;2023-07-24T03:35:51;11.50;;;7.80;;
14890;SDS011;7537;48.014;11.590;2023-07-24T03:41:19;9.26;;;6.72;;
14890;SDS011;7537;48.014;11.590;2023-07-24T03:46:47;10.07;;;6.86;;
14890;SDS011;7537;48.014;11.590;2023-07-24T03:52:16;11.56;;;7.41;;
14890;SDS011;7537;48.014;11.590;2023-07-24T03:57:47;7.65;;;6.46;;
14890;SDS011;7537;48.014;11.590;2023-07-24T04:03:14;12.70;;;8.18;;
14890;SDS011;7537;48.014;11.590;2023-07-24T04:08:42;11.09;;;7.61;;
14890;SDS011;7537;48.014;11.590;2023-07-24T04:14:13;9.47;;;7.78;;
14890;SDS011;7537;48.014;11.590;2023-07-24T04:19:46;10.89;;;8.17;;
14890;SDS011;7537;48.014;11.590;2023-07-24T04:25:14;10.08;;;7.62;;
14890;SDS011;7537;48.014;11.590;2023-07-24T04:30:47;8.94;;;7.68;;
14890;SDS011;7537;48.014;11.590;2023-07-24T04:36:15;9.18;;;7.48;;
14890;SDS011;7537;48.014;11.590;2023-07-24T04:41:43;9.64;;;7.58;;
14890;SDS011;7537;48.014;11.590;2023-07-24T04:47:09;9.20;;;6.81;;
14890;SDS011;7537;48.014;11.590;2023-07-24T04:52:39;9.19;;;6.87;;
14890;SDS011;7537;48.014;11.590;2023-07-24T04:58:06;7.87;;;7.31;;
14890;SDS011;7537;48.014;11.590;2023-07-24T05:03:35;7.59;;;6.05;;
14890;SDS011;7537;48.014;11.590;2023-07-24T05:09:03;7.84;;;7.26;;
14890;SDS011;7537;48.014;11.590;2023-07-24T05:14:34;9.71;;;6.91;;
14890;SDS011;7537;48.014;11.590;2023-07-24T05:20:07;11.79;;;7.66;;
14890;SDS011;7537;48.014;11.590;2023-07-24T05:25:35;8.42;;;6.60;;
14890;SDS011;7537;48.014;11.590;2023-07-24T05:31:03;8.81;;;7.48;;
14890;SDS011;7537;48.014;11.590;2023-07-24T05:36:40;10.74;;;7.39;;
14890;SDS011;7537;48.014;11.590;2023-07-24T05:42:08;7.77;;;6.61;;
14890;SDS011;7537;48.014;11.590;2023-07-24T05:47:36;9.83;;;7.49;;
14890;SDS011;7537;48.014;11.590;2023-07-24T05:53:07;11.30;;;6.89;;
14890;SDS011;7537;48.014;11.590;2023-07-24T05:58:43;7.85;;;6.68;;
14890;SDS011;7537;48.014;11.590;2023-07-24T06:04:11;8.63;;;6.78;;
14890;SDS011;7537;48.014;11.590;2023-07-24T06:09:38;8.23;;;7.14;;
14890;SDS011;7537;48.014;11.590;2023-07-24T06:15:09;9.59;;;7.46;;
14890;SDS011;7537;48.014;11.590;2023-07-24T06:20:43;13.59;;;7.21;;
14890;SDS011;7537;48.014;11.590;2023-07-24T06:26:13;8.43;;;7.01;;
14890;SDS011;7537;48.014;11.590;2023-07-24T06:31:50;8.62;;;7.22;;
14890;SDS011;7537;48.014;11.590;2023-07-24T06:37:21;7.32;;;7.10;;
14890;SDS011;7537;48.014;11.590;2023-07-24T06:42:48;9.28;;;7.96;;
14890;SDS011;7537;48.014;11.590;2023-07-24T06:48:16;7.91;;;6.99;;
14890;SDS011;7537;48.014;11.590;2023-07-24T06:53:52;10.39;;;7.42;;
14890;SDS011;7537;48.014;11.590;2023-07-24T06:59:19;8.47;;;7.21;;
14890;SDS011;7537;48.014;11.590;2023-07-24T07:04:47;8.15;;;7.14;;
14890;SDS011;7537;48.014;11.590;2023-07-24T07:10:17;9.19;;;7.53;;
14890;SDS011;7537;48.014;11.590;2023-07-24T07:15:48;9.21;;;7.89;;
14890;SDS011;7537;48.014;11.590;2023-07-24T07:21:21;10.17;;;7.12;;
14890;SDS011;7537;48.014;11.590;2023-07-24T07:26:51;7.39;;;7.45;;
14890;SDS011;7537;48.014;11.590;2023-07-24T07:32:19;9.05;;;8.00;;
14890;SDS011;7537;48.014;11.590;2023-07-24T07:37:48;11.22;;;8.52;;
14890;SDS011;7537;48.014;11.590;2023-07-24T07:43:16;8.20;;;7.21;;
14890;SDS011;7537;48.014;11.590;2023-07-24T07:48:43;7.77;;;6.87;;
14890;SDS011;7537;48.014;11.590;2023-07-24T07:54:11;7.45;;;5.78;;
14890;SDS011;7537;48.014;11.590;2023-07-24T07:59:38;9.08;;;6.53;;
14890;SDS011;7537;48.014;11.590;2023-07-24T08:05:07;8.31;;;6.22;;
14890;SDS011;7537;48.014;11.590;2023-07-24T08:10:48;8.22;;;6.19;;
14890;SDS011;7537;48.014;11.590;2023-07-24T08:16:22;5.83;;;5.37;;
14890;SDS011;7537;48.014;11.590;2023-07-24T08:21:53;6.41;;;5.27;;
14890;SDS011;7537;48.014;11.590;2023-07-24T08:27:21;5.89;;;4.90;;
14890;SDS011;7537;48.014;11.590;2023-07-24T08:32:48;5.38;;;5.41;;
14890;SDS011;7537;48.014;11.590;2023-07-24T08:38:19;6.39;;;5.36;;
14890;SDS011;7537;48.014;11.590;2023-07-24T08:43:47;8.17;;;5.44;;
14890;SDS011;7537;48.014;11.590;2023-07-24T08:49:14;5.73;;;4.98;;
14890;SDS011;7537;48.014;11.590;2023-07-24T08:54:50;5.94;;;4.75;;
14890;SDS011;7537;48.014;11.590;2023-07-24T09:00:21;4.66;;;4.31;;
14890;SDS011;7537;48.014;11.590;2023-07-24T09:05:49;4.49;;;4.55;;
14890;SDS011;7537;48.014;11.590;2023-07-24T09:11:17;7.32;;;5.97;;
14890;SDS011;7537;48.014;11.590;2023-07-24T09:17:03;5.60;;;4.68;;
14890;SDS011;7537;48.014;11.590;2023-07-24T09:22:37;6.26;;;4.58;;
14890;SDS011;7537;48.014;11.590;2023-07-24T09:28:14;5.47;;;4.62;;
14890;SDS011;7537;48.014;11.590;2023-07-24T09:33:42;5.23;;;5.19;;
14890;SDS011;7537;48.014;11.590;2023-07-24T09:39:10;4.15;;;4.22;;
14890;SDS011;7537;48.014;11.590;2023-07-24T09:44:38;3.69;;;3.78;;
14890;SDS011;7537;48.014;11.590;2023-07-24T09:50:09;3.64;;;3.72;;
14890;SDS011;7537;48.014;11.590;2023-07-24T09:55:38;4.91;;;4.14;;
14890;SDS011;7537;48.014;11.590;2023-07-24T10:01:13;4.62;;;4.58;;
14890;SDS011;7537;48.014;11.590;2023-07-24T10:06:53;4.93;;;3.90;;
14890;SDS011;7537;48.014;11.590;2023-07-24T10:12:33;4.88;;;4.21;;
14890;SDS011;7537;48.014;11.590;2023-07-24T10:18:04;4.89;;;4.19;;
14890;SDS011;7537;48.014;11.590;2023-07-24T10:23:34;3.97;;;4.04;;
14890;SDS011;7537;48.014;11.590;2023-07-24T10:29:08;5.44;;;4.33;;
14890;SDS011;7537;48.014;11.590;2023-07-24T10:34:39;4.71;;;4.58;;
14890;SDS011;7537;48.014;11.590;2023-07-24T10:40:19;4.13;;;4.14;;
14890;SDS011;7537;48.014;11.590;2023-07-24T10:45:50;4.47;;;4.19;;
14890;SDS011;7537;48.014;11.590;2023-07-24T10:51:20;3.93;;;4.07;;
14890;SDS011;7537;48.014;11.590;2023-07-24T10:56:48;4.44;;;4.29;;
14890;SDS011;7537;48.014;11.590;2023-07-24T11:02:16;5.57;;;4.49;;
14890;SDS011;7537;48.014;11.590;2023-07-24T11:07:43;4.18;;;4.28;;
14890;SDS011;7537;48.014;11.590;2023-07-24T11:13:11;4.42;;;4.46;;
14890;SDS011;7537;48.014;11.590;2023-07-24T11:18:46;4.74;;;4.56;;
14890;SDS011;7537;48.014;11.590;2023-07-24T11:24:13;3.58;;;3.63;;
14890;SDS011;7537;48.014;11.590;2023-07-24T11:29:50;4.72;;;4.46;;
14890;SDS011;7537;48.014;11.590;2023-07-24T11:35:20;4.79;;;4.79;;
14890;SDS011;7537;48.014;11.590;2023-07-24T11:40:53;6.11;;;5.11;;
14890;SDS011;7537;48.014;11.590;2023-07-24T11:46:25;4.99;;;4.69;;
14890;SDS011;7537;48.014;11.590;2023-07-24T11:51:53;5.36;;;4.94;;
14890;SDS011;7537;48.014;11.590;2023-07-24T11:57:21;4.76;;;4.84;;
14890;SDS011;7537;48.014;11.590;2023-07-24T12:02:49;4.91;;;4.91;;
14890;SDS011;7537;48.014;11.590;2023-07-24T12:08:17;4.68;;;4.31;;
14890;SDS011;7537;48.014;11.590;2023-07-24T12:13:48;4.95;;;4.89;;
14890;SDS011;7537;48.014;11.590;2023-07-24T12:19:27;6.43;;;5.16;;
14890;SDS011;7537;48.014;11.590;2023-07-24T12:24:54;4.39;;;4.46;;
14890;SDS011;7537;48.014;11.590;2023-07-24T12:30:22;4.83;;;4.82;;
14890;SDS011;7537;48.014;11.590;2023-07-24T12:35:58;7.56;;;4.71;;
14890;SDS011;7537;48.014;11.590;2023-07-24T12:41:24;6.26;;;4.32;;
14890;SDS011;7537;48.014;11.590;2023-07-24T12:46:51;8.06;;;4.74;;
14890;SDS011;7537;48.014;11.590;2023-07-24T12:52:20;6.56;;;3.87;;
14890;SDS011;7537;48.014;11.590;2023-07-24T12:57:51;3.92;;;3.89;;
14890;SDS011;7537;48.014;11.590;2023-07-24T13:03:18;4.71;;;3.51;;
14890;SDS011;7537;48.014;11.590;2023-07-24T13:08:49;5.89;;;4.54;;
14890;SDS011;7537;48.014;11.590;2023-07-24T13:14:17;4.39;;;4.13;;
14890;SDS011;7537;48.014;11.590;2023-07-24T13:19:48;5.55;;;4.84;;
14890;SDS011;7537;48.014;11.590;2023-07-24T13:25:15;8.54;;;4.77;;
14890;SDS011;7537;48.014;11.590;2023-07-24T13:30:46;6.73;;;6.14;;
14890;SDS011;7537;48.014;11.590;2023-07-24T13:36:16;6.14;;;4.41;;
14890;SDS011;7537;48.014;11.590;2023-07-24T13:41:44;5.00;;;4.57;;
14890;SDS011;7537;48.014;11.590;2023-07-24T13:47:15;5.64;;;5.10;;
14890;SDS011;7537;48.014;11.590;2023-07-24T13:52:46;4.54;;;4.34;;
14890;SDS011;7537;48.014;11.590;2023-07-24T13:58:13;4.66;;;3.78;;
14890;SDS011;7537;48.014;11.590;2023-07-24T14:03:39;5.06;;;3.76;;
14890;SDS011;7537;48.014;11.590;2023-07-24T14:09:13;3.91;;;3.25;;
14890;SDS011;7537;48.014;11.590;2023-07-24T14:14:46;5.30;;;3.62;;
14890;SDS011;7537;48.014;11.590;2023-07-24T14:20:26;2.68;;;2.62;;
14890;SDS011;7537;48.014;11.590;2023-07-24T14:25:53;2.33;;;2.32;;
14890;SDS011;7537;48.014;11.590;2023-07-24T14:31:23;2.89;;;2.61;;
14890;SDS011;7537;48.014;11.590;2023-07-24T14:36:51;2.40;;;2.44;;
14890;SDS011;7537;48.014;11.590;2023-07-24T14:42:21;3.30;;;2.69;;
14890;SDS011;7537;48.014;11.590;2023-07-24T14:47:50;2.03;;;2.08;;
14890;SDS011;7537;48.014;11.590;2023-07-24T14:53:22;2.59;;;2.36;;
14890;SDS011;7537;48.014;11.590;2023-07-24T14:58:49;3.29;;;2.97;;
14890;SDS011;7537;48.014;11.590;2023-07-24T15:04:20;4.61;;;3.21;;
14890;SDS011;7537;48.014;11.590;2023-07-24T15:09:48;3.89;;;3.35;;
14890;SDS011;7537;48.014;11.590;2023-07-24T15:15:16;3.52;;;2.83;;
14890;SDS011;7537;48.014;11.590;2023-07-24T15:21:20;2.44;;;2.36;;
14890;SDS011;7537;48.014;11.590;2023-07-24T15:26:48;2.33;;;2.39;;
14890;SDS011;7537;48.014;11.590;2023-07-24T15:32:16;2.20;;;2.31;;
14890;SDS011;7537;48.014;11.590;2023-07-24T15:37:43;4.79;;;2.37;;
14890;SDS011;7537;48.014;11.590;2023-07-24T15:43:23;2.33;;;2.12;;
14890;SDS011;7537;48.014;11.590;2023-07-24T15:48:51;2.68;;;2.33;;
14890;SDS011;7537;48.014;11.590;2023-07-24T15:54:26;2.06;;;2.04;;
14890;SDS011;7537;48.014;11.590;2023-07-24T16:00:04;2.04;;;2.13;;
14890;SDS011;7537;48.014;11.590;2023-07-24T16:05:32;2.41;;;2.53;;
14890;SDS011;7537;48.014;11.590;2023-07-24T16:11:09;2.98;;;2.12;;
14890;SDS011;7537;48.014;11.590;2023-07-24T16:16:39;2.44;;;2.50;;
14890;SDS011;7537;48.014;11.590;2023-07-24T16:22:11;2.74;;;2.87;;
14890;SDS011;7537;48.014;11.590;2023-07-24T16:27:42;2.74;;;2.78;;
14890;SDS011;7537;48.014;11.590;2023-07-24T16:33:10;3.40;;;2.84;;
14890;SDS011;7537;48.014;11.590;2023-07-24T16:38:44;3.56;;;2.75;;
14890;SDS011;7537;48.014;11.590;2023-07-24T16:44:12;3.33;;;3.26;;
14890;SDS011;7537;48.014;11.590;2023-07-24T16:49:43;3.12;;;3.16;;
14890;SDS011;7537;48.014;11.590;2023-07-24T16:55:12;3.91;;;3.49;;
14890;SDS011;7537;48.014;11.590;2023-07-24T17:00:46;3.76;;;3.28;;
14890;SDS011;7537;48.014;11.590;2023-07-24T17:06:22;5.29;;;3.46;;
14890;SDS011;7537;48.014;11.590;2023-07-24T17:11:49;4.32;;;3.72;;
14890;SDS011;7537;48.014;11.590;2023-07-24T17:17:17;5.51;;;4.41;;
14890;SDS011;7537;48.014;11.590;2023-07-24T17:22:51;4.80;;;4.41;;
14890;SDS011;7537;48.014;11.590;2023-07-24T17:28:30;4.43;;;4.26;;
14890;SDS011;7537;48.014;11.590;2023-07-24T17:34:01;7.03;;;5.11;;
14890;SDS011;7537;48.014;11.590;2023-07-24T17:39:41;4.28;;;3.89;;
14890;SDS011;7537;48.014;11.590;2023-07-24T17:45:09;5.61;;;4.18;;
14890;SDS011;7537;48.014;11.590;2023-07-24T17:50:40;4.36;;;4.16;;
14890;SDS011;7537;48.014;11.590;2023-07-24T17:56:09;4.47;;;3.98;;
14890;SDS011;7537;48.014;11.590;2023-07-24T18:01:37;6.31;;;4.43;;
14890;SDS011;7537;48.014;11.590;2023-07-24T18:07:05;4.82;;;3.68;;
14890;SDS011;7537;48.014;11.590;2023-07-24T18:12:43;5.92;;;4.31;;
14890;SDS011;7537;48.014;11.590;2023-07-24T18:18:11;3.73;;;3.83;;
14890;SDS011;7537;48.014;11.590;2023-07-24T18:23:47;3.51;;;3.46;;
14890;SDS011;7537;48.014;11.590;2023-07-24T18:29:22;4.02;;;4.17;;
14890;SDS011;7537;48.014;11.590;2023-07-24T18:34:49;5.49;;;4.54;;
14890;SDS011;7537;48.014;11.590;2023-07-24T18:40:20;5.19;;;4.22;;
14890;SDS011;7537;48.014;11.590;2023-07-24T18:45:55;5.54;;;4.22;;
14890;SDS011;7537;48.014;11.590;2023-07-24T18:51:23;3.95;;;3.94;;
14890;SDS011;7537;48.014;11.590;2023-07-24T18:56:57;6.00;;;4.54;;
14890;SDS011;7537;48.014;11.590;2023-07-24T19:02:28;4.08;;;4.14;;
14890;SDS011;7537;48.014;11.590;2023-07-24T19:07:57;4.58;;;4.64;;
14890;SDS011;7537;48.014;11.590;2023-07-24T19:13:25;4.26;;;4.22;;
14890;SDS011;7537;48.014;11.590;2023-07-24T19:18:53;4.56;;;4.21;;
14890;SDS011;7537;48.014;11.590;2023-07-24T19:24:27;4.53;;;4.36;;
14890;SDS011;7537;48.014;11.590;2023-07-24T19:29:54;5.66;;;4.94;;
14890;SDS011;7537;48.014;11.590;2023-07-24T19:35:28;7.28;;;4.42;;
14890;SDS011;7537;48.014;11.590;2023-07-24T19:40:56;6.25;;;4.87;;
14890;SDS011;7537;48.014;11.590;2023-07-24T19:46:23;5.57;;;5.02;;
14890;SDS011;7537;48.014;11.590;2023-07-24T19:51:51;6.53;;;4.86;;
14890;SDS011;7537;48.014;11.590;2023-07-24T19:57:18;5.05;;;5.07;;
14890;SDS011;7537;48.014;11.590;2023-07-24T20:02:58;6.76;;;4.04;;
14890;SDS011;7537;48.014;11.590;2023-07-24T20:08:24;10.52;;;4.28;;
14890;SDS011;7537;48.014;11.590;2023-07-24T20:14:00;3.14;;;3.29;;
14890;SDS011;7537;48.014;11.590;2023-07-24T20:19:30;3.60;;;3.50;;
14890;SDS011;7537;48.014;11.590;2023-07-24T20:25:05;3.52;;;3.48;;
14890;SDS011;7537;48.014;11.590;2023-07-24T20:30:36;2.93;;;3.01;;
14890;SDS011;7537;48.014;11.590;2023-07-24T20:36:05;5.54;;;3.37;;
14890;SDS011;7537;48.014;11.590;2023-07-24T20:41:33;3.62;;;3.53;;
14890;SDS011;7537;48.014;11.590;2023-07-24T20:47:01;3.46;;;3.45;;
14890;SDS011;7537;48.014;11.590;2023-07-24T20:52:32;4.25;;;3.89;;
14890;SDS011;7537;48.014;11.590;2023-07-24T20:58:02;6.35;;;3.82;;
14890;SDS011;7537;48.014;11.590;2023-07-24T21:03:33;5.45;;;4.21;;
14890;SDS011;7537;48.014;11.590;2023-07-24T21:09:01;4.15;;;3.59;;
14890;SDS011;7537;48.014;11.590;2023-07-24T21:14:31;5.50;;;3.88;;
14890;SDS011;7537;48.014;11.590;2023-07-24T21:20:09;4.74;;;4.03;;
14890;SDS011;7537;48.014;11.590;2023-07-24T21:25:41;5.53;;;4.10;;
14890;SDS011;7537;48.014;11.590;2023-07-24T21:31:14;4.28;;;4.16;;
14890;SDS011;7537;48.014;11.590;2023-07-24T21:36:44;4.38;;;4.24;;
14890;SDS011;7537;48.014;11.590;2023-07-24T21:42:15;3.23;;;2.99;;
14890;SDS011;7537;48.014;11.590;2023-07-24T21:47:42;6.99;;;3.84;;
14890;SDS011;7537;48.014;11.590;2023-07-24T21:53:14;3.89;;;3.78;;
14890;SDS011;7537;48.014;11.590;2023-07-24T21:58:45;3.44;;;3.57;;
14890;SDS011;7537;48.014;11.590;2023-07-24T22:04:12;3.18;;;3.26;;
14890;SDS011;7537;48.014;11.590;2023-07-24T22:09:39;3.51;;;3.16;;
14890;SDS011;7537;48.014;11.590;2023-07-24T22:15:07;3.15;;;3.10;;
14890;SDS011;7537;48.014;11.590;2023-07-24T22:20:35;4.22;;;3.37;;
14890;SDS011;7537;48.014;11.590;2023-07-24T22:26:06;5.19;;;3.69;;
14890;SDS011;7537;48.014;11.590;2023-07-24T22:31:38;3.61;;;3.23;;
14890;SDS011;7537;48.014;11.590;2023-07-24T22:37:06;3.82;;;3.90;;
14890;SDS011;7537;48.014;11.590;2023-07-24T22:42:39;3.42;;;3.04;;
14890;SDS011;7537;48.014;11.590;2023-07-24T22:48:07;4.91;;;3.44;;
14890;SDS011;7537;48.014;11.590;2023-07-24T22:53:37;3.48;;;3.44;;
14890;SDS011;7537;48.014;11.590;2023-07-24T22:59:20;3.61;;;3.43;;
14890;SDS011;7537;48.014;11.590;2023-07-24T23:04:48;3.04;;;3.10;;
14890;SDS011;7537;48.014;11.590;2023-07-24T23:10:16;3.51;;;3.61;;
14890;SDS011;7537;48.014;11.590;2023-07-24T23:15:49;3.36;;;3.31;;
14890;SDS011;7537;48.014;11.590;2023-07-24T23:21:15;2.96;;;3.09;;
14890;SDS011;7537;48.014;11.590;2023-07-24T23:26:46;3.58;;;3.60;;
14890;SDS011;7537;48.014;11.590;2023-07-24T23:32:19;2.92;;;3.03;;
14890;SDS011;7537;48.014;11.590;2023-07-24T23:37:49;3.52;;;3.70;;
14890;SDS011;7537;48.014;11.590;2023-07-24T23:43:17;3.67;;;3.19;;
14890;SDS011;7537;48.014;11.590;2023-07-24T23:48:47;3.24;;;3.11;;
14890;SDS011;7537;48.014;11.590;2023-07-24T23:54:14;2.88;;;3.04;;
14890;SDS011;7537;48.014;11.590;2023-07-24T23:59:42;6.02;;;3.27;;
